sensor_id;sensor_type;location;lat;lon;timestamp;temperature;humidity
44223;DHT22;29895;48.804;9.386;2023-04-09T00:01:46;7.30;99.90
44223;DHT22;29895;48.804;9.386;2023-04-09T00:04:12;7.40;99.90
44223;DHT22;29895;48.804;9.386;2023-04-09T00:06:37;7.40;99.90
44223;DHT22;29895;48.804;9.386;2023-04-09T00:09:03;7.40;99.90
44223;DHT22;29895;48.804;9.386;2023-04-09T00:11:29;7.40;99.90
44223;DHT22;29895;48.804;9.386;2023-04-09T00:13:56;7.40;99.90
44223;DHT22;29895;48.804;9.386;2023-04-09T00:16:21;7.40;99.90
44223;DHT22;29895;48.804;9.386;2023-04-09T00:18:47;7.30;99.90
44223;DHT22;29895;48.804;9.386;2023-04-09T00:21:13;7.30;99.90
44223;DHT22;29895;48.804;9.386;2023-04-09T00:23:40;7.30;99.90
44223;DHT22;29895;48.804;9.386;2023-04-09T00:26:06;7.30;99.90
44223;DHT22;29895;48.804;9.386;2023-04-09T00:28:32;7.20;99.90
44223;DHT22;29895;48.804;9.386;2023-04-09T00:30:57;7.20;99.90
44223;DHT22;29895;48.804;9.386;2023-04-09T00:33:23;7.20;99.90
44223;DHT22;29895;48.804;9.386;2023-04-09T00:35:49;7.10;99.90
44223;DHT22;29895;48.804;9.386;2023-04-09T00:38:14;7.10;99.90
44223;DHT22;29895;48.804;9.386;2023-04-09T00:40:40;7.10;99.90
44223;DHT22;29895;48.804;9.386;2023-04-09T00:43:06;7.10;99.90
44223;DHT22;29895;48.804;9.386;2023-04-09T00:45:32;7.00;99.90
44223;DHT22;29895;48.804;9.386;2023-04-09T00:47:58;7.00;99.90
44223;DHT22;29895;48.804;9.386;2023-04-09T00:50:23;7.00;99.90
44223;DHT22;29895;48.804;9.386;2023-04-09T00:52:49;7.10;99.90
44223;DHT22;29895;48.804;9.386;2023-04-09T00:55:15;7.10;99.90
44223;DHT22;29895;48.804;9.386;2023-04-09T00:57:42;7.10;99.90
44223;DHT22;29895;48.804;9.386;2023-04-09T01:00:08;7.20;99.90
44223;DHT22;29895;48.804;9.386;2023-04-09T01:02:36;7.20;99.90
44223;DHT22;29895;48.804;9.386;2023-04-09T01:05:02;7.20;99.90
44223;DHT22;29895;48.804;9.386;2023-04-09T01:13:12;7.10;99.90
44223;DHT22;29895;48.804;9.386;2023-04-09T01:15:51;7.10;99.90
44223;DHT22;29895;48.804;9.386;2023-04-09T01:21:06;7.10;99.90
44223;DHT22;29895;48.804;9.386;2023-04-09T01:23:38;7.00;99.90
44223;DHT22;29895;48.804;9.386;2023-04-09T01:28:55;6.90;99.90
44223;DHT22;29895;48.804;9.386;2023-04-09T01:31:30;6.90;99.90
44223;DHT22;29895;48.804;9.386;2023-04-09T01:33:58;6.90;99.90
44223;DHT22;29895;48.804;9.386;2023-04-09T01:36:25;6.90;99.90
44223;DHT22;29895;48.804;9.386;2023-04-09T01:38:52;6.90;99.90
44223;DHT22;29895;48.804;9.386;2023-04-09T01:41:20;6.80;99.90
44223;DHT22;29895;48.804;9.386;2023-04-09T01:43:50;6.80;99.90
44223;DHT22;29895;48.804;9.386;2023-04-09T01:46:17;6.80;99.90
44223;DHT22;29895;48.804;9.386;2023-04-09T01:48:44;6.80;99.90
44223;DHT22;29895;48.804;9.386;2023-04-09T01:51:11;6.80;99.90
44223;DHT22;29895;48.804;9.386;2023-04-09T01:53:39;6.80;99.90
44223;DHT22;29895;48.804;9.386;2023-04-09T01:56:05;6.90;99.90
44223;DHT22;29895;48.804;9.386;2023-04-09T01:58:31;6.90;99.90
44223;DHT22;29895;48.804;9.386;2023-04-09T02:01:09;6.90;99.90
44223;DHT22;29895;48.804;9.386;2023-04-09T02:03:50;6.80;99.90
44223;DHT22;29895;48.804;9.386;2023-04-09T02:08:52;6.80;99.90
44223;DHT22;29895;48.804;9.386;2023-04-09T02:11:20;6.80;99.90
44223;DHT22;29895;48.804;9.386;2023-04-09T02:13:48;6.80;99.90
44223;DHT22;29895;48.804;9.386;2023-04-09T02:16:16;6.80;99.90
44223;DHT22;29895;48.804;9.386;2023-04-09T02:18:42;6.90;99.90
44223;DHT22;29895;48.804;9.386;2023-04-09T02:21:08;6.80;99.90
44223;DHT22;29895;48.804;9.386;2023-04-09T02:23:35;6.80;99.90
44223;DHT22;29895;48.804;9.386;2023-04-09T02:26:01;6.80;99.90
44223;DHT22;29895;48.804;9.386;2023-04-09T02:28:27;6.80;99.90
44223;DHT22;29895;48.804;9.386;2023-04-09T02:30:52;6.70;99.90
44223;DHT22;29895;48.804;9.386;2023-04-09T02:33:18;6.80;99.90
44223;DHT22;29895;48.804;9.386;2023-04-09T02:35:44;6.80;99.90
44223;DHT22;29895;48.804;9.386;2023-04-09T02:38:10;6.80;99.90
44223;DHT22;29895;48.804;9.386;2023-04-09T02:40:40;6.80;99.90
44223;DHT22;29895;48.804;9.386;2023-04-09T02:43:06;6.70;99.90
44223;DHT22;29895;48.804;9.386;2023-04-09T02:45:32;6.70;99.90
44223;DHT22;29895;48.804;9.386;2023-04-09T02:47:58;6.70;99.90
44223;DHT22;29895;48.804;9.386;2023-04-09T02:50:23;6.70;99.90
44223;DHT22;29895;48.804;9.386;2023-04-09T02:52:49;6.70;99.90
44223;DHT22;29895;48.804;9.386;2023-04-09T02:55:16;6.60;99.90
44223;DHT22;29895;48.804;9.386;2023-04-09T02:57:42;6.60;99.90
44223;DHT22;29895;48.804;9.386;2023-04-09T03:00:08;6.60;99.90
44223;DHT22;29895;48.804;9.386;2023-04-09T03:02:34;6.60;99.90
44223;DHT22;29895;48.804;9.386;2023-04-09T03:05:00;6.50;99.90
44223;DHT22;29895;48.804;9.386;2023-04-09T03:07:25;6.50;99.90
44223;DHT22;29895;48.804;9.386;2023-04-09T03:09:51;6.50;99.90
44223;DHT22;29895;48.804;9.386;2023-04-09T03:12:16;6.50;99.90
44223;DHT22;29895;48.804;9.386;2023-04-09T03:14:42;6.50;99.90
44223;DHT22;29895;48.804;9.386;2023-04-09T03:17:08;6.60;99.90
44223;DHT22;29895;48.804;9.386;2023-04-09T03:19:33;6.50;99.90
44223;DHT22;29895;48.804;9.386;2023-04-09T03:21:59;6.50;99.90
44223;DHT22;29895;48.804;9.386;2023-04-09T03:24:25;6.50;99.90
44223;DHT22;29895;48.804;9.386;2023-04-09T03:26:50;6.50;99.90
44223;DHT22;29895;48.804;9.386;2023-04-09T03:29:16;6.50;99.90
44223;DHT22;29895;48.804;9.386;2023-04-09T03:31:41;6.50;99.90
44223;DHT22;29895;48.804;9.386;2023-04-09T03:34:07;6.40;99.90
44223;DHT22;29895;48.804;9.386;2023-04-09T03:36:33;6.50;99.90
44223;DHT22;29895;48.804;9.386;2023-04-09T03:38:58;6.40;99.90
44223;DHT22;29895;48.804;9.386;2023-04-09T03:41:25;6.40;99.90
44223;DHT22;29895;48.804;9.386;2023-04-09T03:43:51;6.30;99.90
44223;DHT22;29895;48.804;9.386;2023-04-09T03:46:17;6.30;99.90
44223;DHT22;29895;48.804;9.386;2023-04-09T03:48:43;6.40;99.90
44223;DHT22;29895;48.804;9.386;2023-04-09T03:51:16;6.40;99.90
44223;DHT22;29895;48.804;9.386;2023-04-09T03:53:42;6.40;99.90
44223;DHT22;29895;48.804;9.386;2023-04-09T03:56:08;6.30;99.90
44223;DHT22;29895;48.804;9.386;2023-04-09T03:58:35;6.30;99.90
44223;DHT22;29895;48.804;9.386;2023-04-09T04:01:01;6.40;99.90
44223;DHT22;29895;48.804;9.386;2023-04-09T04:03:27;6.40;99.90
44223;DHT22;29895;48.804;9.386;2023-04-09T04:05:53;6.40;99.90
44223;DHT22;29895;48.804;9.386;2023-04-09T04:08:24;6.40;99.90
44223;DHT22;29895;48.804;9.386;2023-04-09T04:10:49;6.40;99.90
44223;DHT22;29895;48.804;9.386;2023-04-09T04:13:15;6.30;99.90
44223;DHT22;29895;48.804;9.386;2023-04-09T04:15:41;6.30;99.90
44223;DHT22;29895;48.804;9.386;2023-04-09T04:18:10;6.30;99.90
44223;DHT22;29895;48.804;9.386;2023-04-09T04:20:36;6.30;99.90
44223;DHT22;29895;48.804;9.386;2023-04-09T04:23:03;6.30;99.90
44223;DHT22;29895;48.804;9.386;2023-04-09T04:25:29;6.30;99.90
44223;DHT22;29895;48.804;9.386;2023-04-09T04:27:55;6.20;99.90
44223;DHT22;29895;48.804;9.386;2023-04-09T04:30:21;6.10;99.90
44223;DHT22;29895;48.804;9.386;2023-04-09T04:32:47;6.10;99.90
44223;DHT22;29895;48.804;9.386;2023-04-09T04:35:13;6.10;99.90
44223;DHT22;29895;48.804;9.386;2023-04-09T04:37:38;6.10;99.90
44223;DHT22;29895;48.804;9.386;2023-04-09T04:40:06;6.20;99.90
44223;DHT22;29895;48.804;9.386;2023-04-09T04:42:32;6.10;99.90
44223;DHT22;29895;48.804;9.386;2023-04-09T04:44:58;6.00;99.90
44223;DHT22;29895;48.804;9.386;2023-04-09T04:47:24;6.00;99.90
44223;DHT22;29895;48.804;9.386;2023-04-09T04:49:49;6.10;99.90
44223;DHT22;29895;48.804;9.386;2023-04-09T04:52:15;6.00;99.90
44223;DHT22;29895;48.804;9.386;2023-04-09T04:54:41;6.10;99.90
44223;DHT22;29895;48.804;9.386;2023-04-09T04:57:07;6.20;99.90
44223;DHT22;29895;48.804;9.386;2023-04-09T04:59:35;6.20;99.90
44223;DHT22;29895;48.804;9.386;2023-04-09T05:02:01;6.20;99.90
44223;DHT22;29895;48.804;9.386;2023-04-09T05:04:26;6.30;99.90
44223;DHT22;29895;48.804;9.386;2023-04-09T05:06:52;6.30;99.90
44223;DHT22;29895;48.804;9.386;2023-04-09T05:09:18;6.30;99.90
44223;DHT22;29895;48.804;9.386;2023-04-09T05:11:43;6.30;99.90
44223;DHT22;29895;48.804;9.386;2023-04-09T05:14:09;6.30;99.90
44223;DHT22;29895;48.804;9.386;2023-04-09T05:16:35;6.40;99.90
44223;DHT22;29895;48.804;9.386;2023-04-09T05:19:01;6.50;99.90
44223;DHT22;29895;48.804;9.386;2023-04-09T05:21:26;6.60;99.90
44223;DHT22;29895;48.804;9.386;2023-04-09T05:23:52;6.70;99.90
44223;DHT22;29895;48.804;9.386;2023-04-09T05:26:18;6.90;99.90
44223;DHT22;29895;48.804;9.386;2023-04-09T05:28:44;7.30;99.90
44223;DHT22;29895;48.804;9.386;2023-04-09T05:31:09;7.70;99.90
44223;DHT22;29895;48.804;9.386;2023-04-09T05:33:37;8.00;99.90
44223;DHT22;29895;48.804;9.386;2023-04-09T05:36:04;8.30;99.90
44223;DHT22;29895;48.804;9.386;2023-04-09T05:38:30;8.80;99.90
44223;DHT22;29895;48.804;9.386;2023-04-09T05:40:55;9.10;99.90
44223;DHT22;29895;48.804;9.386;2023-04-09T05:43:21;9.30;99.90
44223;DHT22;29895;48.804;9.386;2023-04-09T05:45:47;9.60;99.90
44223;DHT22;29895;48.804;9.386;2023-04-09T05:48:13;9.80;99.90
44223;DHT22;29895;48.804;9.386;2023-04-09T05:50:39;10.20;99.90
44223;DHT22;29895;48.804;9.386;2023-04-09T05:53:05;10.30;99.90
44223;DHT22;29895;48.804;9.386;2023-04-09T05:55:31;10.20;99.90
44223;DHT22;29895;48.804;9.386;2023-04-09T05:57:57;10.20;99.90
44223;DHT22;29895;48.804;9.386;2023-04-09T06:00:23;10.30;99.90
44223;DHT22;29895;48.804;9.386;2023-04-09T06:02:50;10.50;99.90
44223;DHT22;29895;48.804;9.386;2023-04-09T06:05:15;10.50;99.90
44223;DHT22;29895;48.804;9.386;2023-04-09T06:07:41;10.70;99.90
44223;DHT22;29895;48.804;9.386;2023-04-09T06:10:07;10.70;99.90
44223;DHT22;29895;48.804;9.386;2023-04-09T06:12:34;10.90;99.90
44223;DHT22;29895;48.804;9.386;2023-04-09T06:15:00;10.90;99.90
44223;DHT22;29895;48.804;9.386;2023-04-09T06:17:25;11.20;99.90
44223;DHT22;29895;48.804;9.386;2023-04-09T06:19:51;11.00;99.90
44223;DHT22;29895;48.804;9.386;2023-04-09T06:22:16;10.40;99.90
44223;DHT22;29895;48.804;9.386;2023-04-09T06:24:42;10.20;99.90
44223;DHT22;29895;48.804;9.386;2023-04-09T06:27:08;9.90;99.90
44223;DHT22;29895;48.804;9.386;2023-04-09T06:29:33;9.70;99.90
44223;DHT22;29895;48.804;9.386;2023-04-09T06:31:59;9.80;99.90
44223;DHT22;29895;48.804;9.386;2023-04-09T06:34:25;10.10;99.90
44223;DHT22;29895;48.804;9.386;2023-04-09T06:36:50;10.40;99.90
44223;DHT22;29895;48.804;9.386;2023-04-09T06:39:16;10.90;99.90
44223;DHT22;29895;48.804;9.386;2023-04-09T06:41:42;11.30;99.90
44223;DHT22;29895;48.804;9.386;2023-04-09T06:44:07;11.60;99.90
44223;DHT22;29895;48.804;9.386;2023-04-09T06:46:33;12.00;99.90
44223;DHT22;29895;48.804;9.386;2023-04-09T06:48:59;12.20;99.90
44223;DHT22;29895;48.804;9.386;2023-04-09T06:51:24;12.30;99.90
44223;DHT22;29895;48.804;9.386;2023-04-09T06:53:51;12.10;99.90
44223;DHT22;29895;48.804;9.386;2023-04-09T06:56:17;12.10;99.90
44223;DHT22;29895;48.804;9.386;2023-04-09T06:58:42;12.40;99.90
44223;DHT22;29895;48.804;9.386;2023-04-09T07:01:08;12.30;99.90
44223;DHT22;29895;48.804;9.386;2023-04-09T07:03:34;12.40;99.90
44223;DHT22;29895;48.804;9.386;2023-04-09T07:05:59;12.50;99.90
44223;DHT22;29895;48.804;9.386;2023-04-09T07:08:25;13.00;99.90
44223;DHT22;29895;48.804;9.386;2023-04-09T07:10:51;13.50;99.90
44223;DHT22;29895;48.804;9.386;2023-04-09T07:13:17;13.50;99.90
44223;DHT22;29895;48.804;9.386;2023-04-09T07:15:42;13.80;99.90
44223;DHT22;29895;48.804;9.386;2023-04-09T07:18:08;13.90;99.90
44223;DHT22;29895;48.804;9.386;2023-04-09T07:20:33;13.50;99.90
44223;DHT22;29895;48.804;9.386;2023-04-09T07:22:59;12.50;99.90
44223;DHT22;29895;48.804;9.386;2023-04-09T07:25:25;12.30;99.90
44223;DHT22;29895;48.804;9.386;2023-04-09T07:27:51;11.60;99.90
44223;DHT22;29895;48.804;9.386;2023-04-09T07:30:16;11.10;99.90
44223;DHT22;29895;48.804;9.386;2023-04-09T07:32:42;10.60;99.90
44223;DHT22;29895;48.804;9.386;2023-04-09T07:35:08;10.80;99.90
44223;DHT22;29895;48.804;9.386;2023-04-09T07:37:34;11.00;99.90
44223;DHT22;29895;48.804;9.386;2023-04-09T07:40:00;11.50;99.90
44223;DHT22;29895;48.804;9.386;2023-04-09T07:42:26;11.30;99.90
44223;DHT22;29895;48.804;9.386;2023-04-09T07:44:52;11.00;99.90
44223;DHT22;29895;48.804;9.386;2023-04-09T07:47:18;10.70;99.90
44223;DHT22;29895;48.804;9.386;2023-04-09T07:49:43;10.70;99.90
44223;DHT22;29895;48.804;9.386;2023-04-09T07:52:09;10.70;99.90
44223;DHT22;29895;48.804;9.386;2023-04-09T07:54:35;10.50;99.90
44223;DHT22;29895;48.804;9.386;2023-04-09T07:57:01;10.20;99.90
44223;DHT22;29895;48.804;9.386;2023-04-09T07:59:27;10.10;99.90
44223;DHT22;29895;48.804;9.386;2023-04-09T08:01:53;10.00;99.90
44223;DHT22;29895;48.804;9.386;2023-04-09T08:04:19;10.00;99.90
44223;DHT22;29895;48.804;9.386;2023-04-09T08:06:45;10.00;99.90
44223;DHT22;29895;48.804;9.386;2023-04-09T08:09:17;10.00;99.90
44223;DHT22;29895;48.804;9.386;2023-04-09T08:11:43;10.40;99.90
44223;DHT22;29895;48.804;9.386;2023-04-09T08:14:10;10.30;99.90
44223;DHT22;29895;48.804;9.386;2023-04-09T08:16:42;10.40;99.90
44223;DHT22;29895;48.804;9.386;2023-04-09T08:19:08;10.30;99.90
44223;DHT22;29895;48.804;9.386;2023-04-09T08:21:39;10.60;99.90
44223;DHT22;29895;48.804;9.386;2023-04-09T08:24:08;10.90;99.90
44223;DHT22;29895;48.804;9.386;2023-04-09T08:26:36;10.90;99.90
44223;DHT22;29895;48.804;9.386;2023-04-09T08:29:02;11.10;99.90
44223;DHT22;29895;48.804;9.386;2023-04-09T08:31:27;11.10;99.90
44223;DHT22;29895;48.804;9.386;2023-04-09T08:33:53;11.30;99.90
44223;DHT22;29895;48.804;9.386;2023-04-09T08:36:19;11.00;99.90
44223;DHT22;29895;48.804;9.386;2023-04-09T08:38:45;10.80;99.90
44223;DHT22;29895;48.804;9.386;2023-04-09T08:41:19;11.20;99.90
44223;DHT22;29895;48.804;9.386;2023-04-09T08:43:46;11.10;99.90
44223;DHT22;29895;48.804;9.386;2023-04-09T08:46:14;11.30;99.90
44223;DHT22;29895;48.804;9.386;2023-04-09T08:48:45;11.20;99.90
44223;DHT22;29895;48.804;9.386;2023-04-09T08:51:16;11.10;99.90
44223;DHT22;29895;48.804;9.386;2023-04-09T08:53:45;10.70;99.90
44223;DHT22;29895;48.804;9.386;2023-04-09T08:56:15;10.70;99.90
44223;DHT22;29895;48.804;9.386;2023-04-09T08:58:45;10.90;99.90
44223;DHT22;29895;48.804;9.386;2023-04-09T09:01:28;11.20;99.90
44223;DHT22;29895;48.804;9.386;2023-04-09T09:04:04;11.40;99.90
44223;DHT22;29895;48.804;9.386;2023-04-09T09:06:34;11.30;99.90
44223;DHT22;29895;48.804;9.386;2023-04-09T09:09:11;11.40;99.90
44223;DHT22;29895;48.804;9.386;2023-04-09T09:11:42;11.40;99.90
44223;DHT22;29895;48.804;9.386;2023-04-09T09:14:13;11.30;99.90
44223;DHT22;29895;48.804;9.386;2023-04-09T09:16:41;11.00;99.90
44223;DHT22;29895;48.804;9.386;2023-04-09T09:19:09;10.90;99.90
44223;DHT22;29895;48.804;9.386;2023-04-09T09:21:35;11.10;99.90
44223;DHT22;29895;48.804;9.386;2023-04-09T09:24:01;11.30;99.90
44223;DHT22;29895;48.804;9.386;2023-04-09T09:26:41;11.40;99.90
44223;DHT22;29895;48.804;9.386;2023-04-09T09:29:06;11.50;99.90
44223;DHT22;29895;48.804;9.386;2023-04-09T09:31:53;11.30;99.90
44223;DHT22;29895;48.804;9.386;2023-04-09T09:34:21;11.30;99.90
44223;DHT22;29895;48.804;9.386;2023-04-09T09:36:47;11.20;99.90
44223;DHT22;29895;48.804;9.386;2023-04-09T09:39:15;10.90;99.90
44223;DHT22;29895;48.804;9.386;2023-04-09T09:41:43;11.20;99.90
44223;DHT22;29895;48.804;9.386;2023-04-09T09:44:10;11.20;99.90
44223;DHT22;29895;48.804;9.386;2023-04-09T09:46:40;11.30;99.90
44223;DHT22;29895;48.804;9.386;2023-04-09T09:49:07;11.30;99.90
44223;DHT22;29895;48.804;9.386;2023-04-09T09:51:38;11.40;99.90
44223;DHT22;29895;48.804;9.386;2023-04-09T09:54:06;11.80;99.90
44223;DHT22;29895;48.804;9.386;2023-04-09T09:56:38;12.30;99.90
44223;DHT22;29895;48.804;9.386;2023-04-09T09:59:05;12.30;99.90
44223;DHT22;29895;48.804;9.386;2023-04-09T10:01:31;12.10;99.90
44223;DHT22;29895;48.804;9.386;2023-04-09T10:03:59;11.90;99.90
44223;DHT22;29895;48.804;9.386;2023-04-09T10:06:26;11.80;99.90
44223;DHT22;29895;48.804;9.386;2023-04-09T10:08:56;11.80;99.90
44223;DHT22;29895;48.804;9.386;2023-04-09T10:11:23;12.10;99.90
44223;DHT22;29895;48.804;9.386;2023-04-09T10:13:52;12.20;99.90
44223;DHT22;29895;48.804;9.386;2023-04-09T10:16:21;12.70;99.60
44223;DHT22;29895;48.804;9.386;2023-04-09T10:18:47;13.10;99.20
44223;DHT22;29895;48.804;9.386;2023-04-09T10:23:54;12.80;99.30
44223;DHT22;29895;48.804;9.386;2023-04-09T10:26:20;12.60;99.00
44223;DHT22;29895;48.804;9.386;2023-04-09T10:29:09;12.60;99.10
44223;DHT22;29895;48.804;9.386;2023-04-09T10:32:03;12.90;97.30
44223;DHT22;29895;48.804;9.386;2023-04-09T10:34:29;12.90;97.40
44223;DHT22;29895;48.804;9.386;2023-04-09T10:36:59;12.90;96.10
44223;DHT22;29895;48.804;9.386;2023-04-09T10:39:26;12.60;95.80
44223;DHT22;29895;48.804;9.386;2023-04-09T10:41:53;12.40;96.20
44223;DHT22;29895;48.804;9.386;2023-04-09T10:44:23;12.30;97.80
44223;DHT22;29895;48.804;9.386;2023-04-09T10:46:55;12.50;98.20
44223;DHT22;29895;48.804;9.386;2023-04-09T10:49:22;13.20;96.90
44223;DHT22;29895;48.804;9.386;2023-04-09T10:52:10;13.20;96.60
44223;DHT22;29895;48.804;9.386;2023-04-09T10:54:44;13.20;96.50
44223;DHT22;29895;48.804;9.386;2023-04-09T10:59:53;13.20;96.60
44223;DHT22;29895;48.804;9.386;2023-04-09T11:05:28;13.60;95.90
44223;DHT22;29895;48.804;9.386;2023-04-09T11:08:05;13.60;95.20
44223;DHT22;29895;48.804;9.386;2023-04-09T11:10:31;13.10;95.60
44223;DHT22;29895;48.804;9.386;2023-04-09T11:12:58;12.70;96.00
44223;DHT22;29895;48.804;9.386;2023-04-09T11:15:23;12.60;96.40
44223;DHT22;29895;48.804;9.386;2023-04-09T11:17:49;12.30;96.50
44223;DHT22;29895;48.804;9.386;2023-04-09T11:20:18;12.30;96.80
44223;DHT22;29895;48.804;9.386;2023-04-09T11:22:48;12.80;96.40
44223;DHT22;29895;48.804;9.386;2023-04-09T11:25:22;13.30;94.70
44223;DHT22;29895;48.804;9.386;2023-04-09T11:27:48;13.60;94.20
44223;DHT22;29895;48.804;9.386;2023-04-09T11:30:14;13.70;94.20
44223;DHT22;29895;48.804;9.386;2023-04-09T11:32:39;14.20;94.70
44223;DHT22;29895;48.804;9.386;2023-04-09T11:35:10;14.80;92.90
44223;DHT22;29895;48.804;9.386;2023-04-09T11:37:38;15.50;91.10
44223;DHT22;29895;48.804;9.386;2023-04-09T11:40:04;15.80;89.80
44223;DHT22;29895;48.804;9.386;2023-04-09T11:42:30;15.90;89.40
44223;DHT22;29895;48.804;9.386;2023-04-09T11:44:56;15.30;91.90
44223;DHT22;29895;48.804;9.386;2023-04-09T11:47:22;15.00;92.60
44223;DHT22;29895;48.804;9.386;2023-04-09T11:49:48;14.20;93.30
44223;DHT22;29895;48.804;9.386;2023-04-09T11:52:14;14.10;92.90
44223;DHT22;29895;48.804;9.386;2023-04-09T11:54:48;14.40;92.50
44223;DHT22;29895;48.804;9.386;2023-04-09T11:57:14;14.90;92.40
44223;DHT22;29895;48.804;9.386;2023-04-09T11:59:40;15.50;91.70
44223;DHT22;29895;48.804;9.386;2023-04-09T12:02:06;15.30;91.70
44223;DHT22;29895;48.804;9.386;2023-04-09T12:04:32;14.50;92.20
44223;DHT22;29895;48.804;9.386;2023-04-09T12:06:58;14.80;92.40
44223;DHT22;29895;48.804;9.386;2023-04-09T12:09:24;14.50;92.30
44223;DHT22;29895;48.804;9.386;2023-04-09T12:11:50;14.20;92.00
44223;DHT22;29895;48.804;9.386;2023-04-09T12:14:16;14.20;92.30
44223;DHT22;29895;48.804;9.386;2023-04-09T12:16:43;14.10;91.70
44223;DHT22;29895;48.804;9.386;2023-04-09T12:19:12;14.10;91.60
44223;DHT22;29895;48.804;9.386;2023-04-09T12:22:04;14.70;91.60
44223;DHT22;29895;48.804;9.386;2023-04-09T12:24:30;14.50;91.00
44223;DHT22;29895;48.804;9.386;2023-04-09T12:26:55;14.30;92.00
44223;DHT22;29895;48.804;9.386;2023-04-09T12:29:21;14.50;91.40
44223;DHT22;29895;48.804;9.386;2023-04-09T12:31:47;14.40;91.70
44223;DHT22;29895;48.804;9.386;2023-04-09T12:34:13;14.20;91.80
44223;DHT22;29895;48.804;9.386;2023-04-09T12:36:39;14.70;91.50
44223;DHT22;29895;48.804;9.386;2023-04-09T12:39:08;15.00;90.60
44223;DHT22;29895;48.804;9.386;2023-04-09T12:41:34;15.00;90.90
44223;DHT22;29895;48.804;9.386;2023-04-09T12:44:00;15.20;90.70
44223;DHT22;29895;48.804;9.386;2023-04-09T12:46:26;15.50;90.60
44223;DHT22;29895;48.804;9.386;2023-04-09T12:48:52;16.20;89.50
44223;DHT22;29895;48.804;9.386;2023-04-09T12:51:18;16.80;88.60
44223;DHT22;29895;48.804;9.386;2023-04-09T12:53:44;17.30;86.60
44223;DHT22;29895;48.804;9.386;2023-04-09T12:56:10;17.60;85.30
44223;DHT22;29895;48.804;9.386;2023-04-09T12:58:36;17.90;84.30
44223;DHT22;29895;48.804;9.386;2023-04-09T13:01:02;18.00;82.90
44223;DHT22;29895;48.804;9.386;2023-04-09T13:03:28;18.00;83.10
44223;DHT22;29895;48.804;9.386;2023-04-09T13:05:54;18.10;83.80
44223;DHT22;29895;48.804;9.386;2023-04-09T13:08:20;17.50;82.10
44223;DHT22;29895;48.804;9.386;2023-04-09T13:10:46;16.50;83.80
44223;DHT22;29895;48.804;9.386;2023-04-09T13:13:11;16.10;85.00
44223;DHT22;29895;48.804;9.386;2023-04-09T13:15:38;16.00;85.20
44223;DHT22;29895;48.804;9.386;2023-04-09T13:18:03;15.70;86.10
44223;DHT22;29895;48.804;9.386;2023-04-09T13:20:29;15.50;85.50
44223;DHT22;29895;48.804;9.386;2023-04-09T13:22:55;15.20;87.00
44223;DHT22;29895;48.804;9.386;2023-04-09T13:25:21;14.70;88.20
44223;DHT22;29895;48.804;9.386;2023-04-09T13:27:47;14.60;87.20
44223;DHT22;29895;48.804;9.386;2023-04-09T13:30:13;14.60;87.30
44223;DHT22;29895;48.804;9.386;2023-04-09T13:32:39;14.80;86.70
44223;DHT22;29895;48.804;9.386;2023-04-09T13:35:05;15.10;87.90
44223;DHT22;29895;48.804;9.386;2023-04-09T13:37:31;15.20;86.30
44223;DHT22;29895;48.804;9.386;2023-04-09T13:39:57;15.10;85.30
44223;DHT22;29895;48.804;9.386;2023-04-09T13:42:23;15.30;86.80
44223;DHT22;29895;48.804;9.386;2023-04-09T13:44:48;15.80;85.20
44223;DHT22;29895;48.804;9.386;2023-04-09T13:47:15;15.80;84.60
44223;DHT22;29895;48.804;9.386;2023-04-09T13:49:41;15.50;85.00
44223;DHT22;29895;48.804;9.386;2023-04-09T13:52:08;15.80;85.50
44223;DHT22;29895;48.804;9.386;2023-04-09T13:54:35;16.10;84.20
44223;DHT22;29895;48.804;9.386;2023-04-09T13:57:00;15.80;85.40
44223;DHT22;29895;48.804;9.386;2023-04-09T13:59:26;15.60;85.60
44223;DHT22;29895;48.804;9.386;2023-04-09T14:01:52;15.40;85.10
44223;DHT22;29895;48.804;9.386;2023-04-09T14:04:17;15.10;85.80
44223;DHT22;29895;48.804;9.386;2023-04-09T14:06:44;15.00;84.90
44223;DHT22;29895;48.804;9.386;2023-04-09T14:09:10;15.20;85.10
44223;DHT22;29895;48.804;9.386;2023-04-09T14:11:36;15.40;83.90
44223;DHT22;29895;48.804;9.386;2023-04-09T14:14:02;15.30;84.50
44223;DHT22;29895;48.804;9.386;2023-04-09T14:16:28;15.30;86.20
44223;DHT22;29895;48.804;9.386;2023-04-09T14:18:55;15.60;86.50
44223;DHT22;29895;48.804;9.386;2023-04-09T14:21:21;16.00;84.90
44223;DHT22;29895;48.804;9.386;2023-04-09T14:23:46;15.90;84.90
44223;DHT22;29895;48.804;9.386;2023-04-09T14:26:12;16.00;85.40
44223;DHT22;29895;48.804;9.386;2023-04-09T14:28:38;16.10;84.90
44223;DHT22;29895;48.804;9.386;2023-04-09T14:31:04;16.00;85.90
44223;DHT22;29895;48.804;9.386;2023-04-09T14:33:30;16.00;84.90
44223;DHT22;29895;48.804;9.386;2023-04-09T14:35:56;16.10;83.80
44223;DHT22;29895;48.804;9.386;2023-04-09T14:38:23;16.20;84.60
44223;DHT22;29895;48.804;9.386;2023-04-09T14:40:49;16.20;84.60
44223;DHT22;29895;48.804;9.386;2023-04-09T14:43:15;16.00;83.90
44223;DHT22;29895;48.804;9.386;2023-04-09T14:45:41;16.00;84.20
44223;DHT22;29895;48.804;9.386;2023-04-09T14:48:07;16.10;83.90
44223;DHT22;29895;48.804;9.386;2023-04-09T14:50:33;16.00;84.30
44223;DHT22;29895;48.804;9.386;2023-04-09T14:52:59;16.00;83.40
44223;DHT22;29895;48.804;9.386;2023-04-09T14:55:26;16.10;84.20
44223;DHT22;29895;48.804;9.386;2023-04-09T14:57:52;16.30;84.50
44223;DHT22;29895;48.804;9.386;2023-04-09T15:00:18;16.30;83.40
44223;DHT22;29895;48.804;9.386;2023-04-09T15:02:43;16.10;83.10
44223;DHT22;29895;48.804;9.386;2023-04-09T15:05:09;16.10;83.70
44223;DHT22;29895;48.804;9.386;2023-04-09T15:07:35;16.30;83.40
44223;DHT22;29895;48.804;9.386;2023-04-09T15:10:01;16.20;81.20
44223;DHT22;29895;48.804;9.386;2023-04-09T15:12:29;15.70;82.80
44223;DHT22;29895;48.804;9.386;2023-04-09T15:14:55;15.20;84.70
44223;DHT22;29895;48.804;9.386;2023-04-09T15:17:22;15.00;83.90
44223;DHT22;29895;48.804;9.386;2023-04-09T15:19:47;15.00;84.30
44223;DHT22;29895;48.804;9.386;2023-04-09T15:22:13;15.00;85.50
44223;DHT22;29895;48.804;9.386;2023-04-09T15:24:39;14.90;86.10
44223;DHT22;29895;48.804;9.386;2023-04-09T15:27:05;15.00;86.20
44223;DHT22;29895;48.804;9.386;2023-04-09T15:29:31;15.10;86.10
44223;DHT22;29895;48.804;9.386;2023-04-09T15:31:57;15.20;85.80
44223;DHT22;29895;48.804;9.386;2023-04-09T15:34:23;15.00;84.60
44223;DHT22;29895;48.804;9.386;2023-04-09T15:36:50;14.90;85.20
44223;DHT22;29895;48.804;9.386;2023-04-09T15:39:16;14.80;86.40
44223;DHT22;29895;48.804;9.386;2023-04-09T15:41:42;14.70;86.90
44223;DHT22;29895;48.804;9.386;2023-04-09T15:44:08;14.60;87.00
44223;DHT22;29895;48.804;9.386;2023-04-09T15:46:34;14.60;87.40
44223;DHT22;29895;48.804;9.386;2023-04-09T15:49:00;14.60;86.80
44223;DHT22;29895;48.804;9.386;2023-04-09T15:51:25;14.50;86.10
44223;DHT22;29895;48.804;9.386;2023-04-09T15:53:51;14.50;86.40
44223;DHT22;29895;48.804;9.386;2023-04-09T15:56:17;14.50;85.70
44223;DHT22;29895;48.804;9.386;2023-04-09T15:58:44;14.40;85.30